createdAt,value
2019-05-03T00:02:29.507Z,99595.63
2019-05-03T00:05:04.646Z,99598.63
2019-05-03T00:07:37.320Z,99597.31
2019-05-03T00:10:12.836Z,99592.87
2019-05-03T00:12:46.140Z,99595.03
2019-05-03T00:15:21.602Z,99596.34
2019-05-03T00:17:54.470Z,99604.11
2019-05-03T00:20:27.631Z,99609.73
2019-05-03T00:23:00.475Z,99604.61
2019-05-03T00:25:33.090Z,99628.27
2019-05-03T00:28:06.195Z,99652.73
2019-05-03T00:30:38.880Z,99654.82
2019-05-03T00:33:11.801Z,99660.78
2019-05-03T00:35:47.265Z,99663.42
2019-05-03T00:38:21.768Z,99665.41
2019-05-03T00:40:54.505Z,99668.14
2019-05-03T00:43:27.200Z,99675.61
2019-05-03T00:46:01.880Z,99676.19
2019-05-03T00:48:34.487Z,99663.47
2019-05-03T00:51:06.985Z,99666.98
2019-05-03T00:53:39.699Z,99671.84
2019-05-03T00:56:12.291Z,99677.94
2019-05-03T00:58:49.477Z,99670.30
2019-05-03T01:01:22.513Z,99676.59
2019-05-03T01:03:55.395Z,99675.08
2019-05-03T01:06:28.049Z,99683.52
2019-05-03T01:09:02.548Z,99681.13
2019-05-03T01:11:36.861Z,99685.12
2019-05-03T01:14:11.678Z,99683.85
2019-05-03T01:16:44.050Z,99685.55
2019-05-03T01:19:16.801Z,99690.05
2019-05-03T01:21:51.471Z,99698.61
2019-05-03T01:24:23.960Z,99696.80
2019-05-03T01:26:57.642Z,99701.75
2019-05-03T01:29:32.248Z,99691.89
2019-05-03T01:32:04.892Z,99685.00
2019-05-03T01:34:37.616Z,99684.54
2019-05-03T01:37:11.910Z,99680.25
2019-05-03T01:39:44.797Z,99673.36
2019-05-03T01:42:17.659Z,99677.80
2019-05-03T01:44:52.298Z,99677.06
2019-05-03T01:47:33.200Z,99677.30
2019-05-03T01:50:07.644Z,99679.88
2019-05-03T01:52:42.018Z,99686.65
2019-05-03T01:55:16.018Z,99688.31
2019-05-03T01:57:48.626Z,99694.41
2019-05-03T02:00:24.002Z,99689.55
2019-05-03T02:03:12.265Z,99696.18
2019-05-03T02:05:48.751Z,99700.50
2019-05-03T02:08:21.993Z,99700.96
2019-05-03T02:10:54.760Z,99717.89
2019-05-03T02:13:27.235Z,99716.69
2019-05-03T02:15:59.852Z,99711.22
2019-05-03T02:18:32.500Z,99710.59
2019-05-03T02:21:05.318Z,99713.45
2019-05-03T02:23:38.080Z,99705.25
2019-05-03T02:26:11.795Z,99717.16
2019-05-03T02:28:44.660Z,99706.73
2019-05-03T02:31:17.516Z,99706.34
2019-05-03T02:33:53.119Z,99698.86
2019-05-03T02:36:24.770Z,99701.59
2019-05-03T02:38:57.536Z,99703.64
2019-05-03T02:41:30.331Z,99713.97
2019-05-03T02:44:02.951Z,99707.58
2019-05-03T02:46:37.797Z,99706.62
2019-05-03T02:49:17.945Z,99706.23
2019-05-03T02:51:50.745Z,99707.19
2019-05-03T02:54:26.541Z,99709.81
2019-05-03T02:56:58.023Z,99716.08
2019-05-03T02:59:30.608Z,99706.17
2019-05-03T03:02:06.131Z,99715.97
2019-05-03T03:04:37.969Z,99709.53
2019-05-03T03:07:10.887Z,99711.69
2019-05-03T03:09:45.302Z,99712.89
2019-05-03T03:12:20.384Z,99718.43
2019-05-03T03:14:55.154Z,99718.08
2019-05-03T03:17:32.395Z,99711.11
2019-05-03T03:20:09.566Z,99721.48
2019-05-03T03:22:45.785Z,99719.44
2019-05-03T03:25:19.779Z,99729.74
2019-05-03T03:27:55.866Z,99729.17
2019-05-03T03:30:58.691Z,99728.16
2019-05-03T03:33:31.376Z,99726.10
2019-05-03T03:36:31.305Z,99735.09
2019-05-03T03:38:38.378Z,99731.83
2019-05-03T03:41:12.629Z,99737.32
2019-05-03T03:43:47.226Z,99740.44
2019-05-03T03:46:21.209Z,99742.20
2019-05-03T03:48:56.201Z,99748.19
2019-05-03T03:51:31.505Z,99762.95
2019-05-03T03:54:06.785Z,99768.30
2019-05-03T03:56:54.504Z,99765.72
2019-05-03T03:59:15.513Z,99784.02
2019-05-03T04:01:48.240Z,99782.81
2019-05-03T04:04:21.334Z,99786.99
2019-05-03T04:06:58.458Z,99783.84
2019-05-03T04:09:29.589Z,99788.63
2019-05-03T04:12:02.790Z,99796.77
2019-05-03T04:14:55.985Z,99793.02
2019-05-03T04:17:45.642Z,99800.12
2019-05-03T04:20:20.116Z,99804.16
2019-05-03T04:22:56.026Z,99808.66
2019-05-03T04:25:28.734Z,99808.23
2019-05-03T04:28:01.175Z,99813.84
2019-05-03T04:30:36.172Z,99810.77
2019-05-03T04:33:08.124Z,99822.62
2019-05-03T04:35:40.737Z,99817.31
2019-05-03T04:38:16.021Z,99828.61
2019-05-03T04:40:47.625Z,99839.45
2019-05-03T04:43:20.721Z,99838.78
2019-05-03T04:46:06.688Z,99851.28
2019-05-03T04:48:38.111Z,99841.73
2019-05-03T04:51:10.981Z,99851.92
2019-05-03T04:53:45.562Z,99850.75
2019-05-03T04:56:18.170Z,99851.64
2019-05-03T04:58:50.886Z,99851.64
2019-05-03T05:01:25.956Z,99864.64
2019-05-03T05:03:58.155Z,99857.48
2019-05-03T05:06:30.749Z,99860.67
2019-05-03T05:09:05.008Z,99862.39
2019-05-03T05:11:37.386Z,99863.48
2019-05-03T05:14:10.425Z,99865.61
2019-05-03T05:16:46.261Z,99870.55
2019-05-03T05:19:19.355Z,99877.92
2019-05-03T05:21:56.650Z,99879.81
2019-05-03T05:24:29.439Z,99879.05
2019-05-03T05:27:22.290Z,99889.67
2019-05-03T05:29:55.383Z,99884.88
2019-05-03T05:32:28.410Z,99886.63
2019-05-03T05:35:01.170Z,99895.45
2019-05-03T05:37:35.222Z,99894.99
2019-05-03T05:40:09.146Z,99904.89
2019-05-03T05:42:41.866Z,99902.86
2019-05-03T05:45:15.359Z,99909.63
2019-05-03T05:47:54.687Z,99914.90
2019-05-03T05:50:31.415Z,99910.69
2019-05-03T05:53:05.345Z,99910.52
2019-05-03T05:55:49.666Z,99925.78
2019-05-03T05:58:25.676Z,99924.41
2019-05-03T06:01:15.025Z,99936.42
2019-05-03T06:03:47.741Z,99937.03
2019-05-03T06:06:25.010Z,99943.77
2019-05-03T06:08:59.600Z,99947.09
2019-05-03T06:11:34.735Z,99945.13
2019-05-03T06:14:09.315Z,99952.99
2019-05-03T06:16:45.155Z,99955.34
2019-05-03T06:19:28.680Z,99956.92
2019-05-03T06:22:10.426Z,99960.42
2019-05-03T06:24:47.647Z,99959.00
2019-05-03T06:27:24.895Z,99962.73
2019-05-03T06:29:59.266Z,99963.54
2019-05-03T06:32:34.549Z,99958.10
2019-05-03T06:35:08.627Z,99957.72
2019-05-03T06:37:42.984Z,99961.09
2019-05-03T06:40:16.434Z,99966.00
2019-05-03T06:42:54.644Z,99959.67
2019-05-03T06:45:24.978Z,99977.75
2019-05-03T06:47:57.735Z,99976.09
2019-05-03T06:50:30.771Z,99971.78
2019-05-03T06:53:05.847Z,99980.13
2019-05-03T06:55:39.984Z,99981.07
2019-05-03T06:58:12.569Z,99984.19
2019-05-03T07:00:46.890Z,99986.60
2019-05-03T07:03:26.825Z,99983.65
2019-05-03T07:06:17.423Z,99980.28
2019-05-03T07:08:55.175Z,100001.33
2019-05-03T07:11:28.326Z,99995.02
2019-05-03T07:14:01.213Z,99986.73
2019-05-03T07:16:35.325Z,99996.06
2019-05-03T07:19:07.992Z,99992.43
2019-05-03T07:21:41.220Z,99991.37
2019-05-03T07:24:14.619Z,100003.63
2019-05-03T07:26:47.536Z,99997.66
2019-05-03T07:29:20.325Z,100003.05
2019-05-03T07:31:54.910Z,100002.70
2019-05-03T07:34:28.350Z,99997.22
2019-05-03T07:37:00.746Z,100007.47
2019-05-03T07:39:34.904Z,100001.93
2019-05-03T07:42:07.945Z,100008.07
2019-05-03T07:44:41.830Z,100009.16
2019-05-03T07:47:14.934Z,100011.43
2019-05-03T07:49:47.759Z,100019.36
2019-05-03T07:52:20.517Z,100014.48
2019-05-03T07:54:55.179Z,100019.85
2019-05-03T07:57:35.782Z,100011.91
2019-05-03T08:00:11.309Z,100018.83
2019-05-03T08:02:44.688Z,100015.38
2019-05-03T08:05:17.675Z,100017.45
2019-05-03T08:07:50.515Z,100015.75
2019-05-03T08:10:25.608Z,100016.96
2019-05-03T08:12:58.070Z,100022.09
2019-05-03T08:15:30.838Z,100021.27
2019-05-03T08:18:04.966Z,100020.77
2019-05-03T08:20:37.810Z,100022.11
2019-05-03T08:23:23.677Z,100024.66
2019-05-03T08:25:45.303Z,100019.89
2019-05-03T08:28:18.088Z,100020.81
2019-05-03T08:30:54.389Z,100021.98
2019-05-03T08:33:37.510Z,100024.02
2019-05-03T08:36:10.111Z,100029.06
2019-05-03T08:38:45.223Z,100033.66
2019-05-03T08:41:25.781Z,100037.63
2019-05-03T08:43:58.536Z,100039.22
2019-05-03T08:46:31.115Z,100041.59
2019-05-03T08:49:05.237Z,100028.95
2019-05-03T08:51:39.491Z,100034.31
2019-05-03T08:54:12.130Z,100034.19
2019-05-03T08:56:45.233Z,100027.42
2019-05-03T08:59:28.674Z,100026.27
2019-05-03T09:01:54.842Z,100033.25
2019-05-03T09:04:36.644Z,100036.52
2019-05-03T09:07:01.446Z,100036.76
2019-05-03T09:09:35.903Z,100035.20
2019-05-03T09:12:08.651Z,100031.63
2019-05-03T09:14:45.498Z,100038.17
2019-05-03T09:17:15.985Z,100039.80
2019-05-03T09:19:48.975Z,100037.48
2019-05-03T09:22:21.655Z,100046.47
2019-05-03T09:24:54.684Z,100050.90
2019-05-03T09:27:28.550Z,100044.05
2019-05-03T09:30:01.445Z,100061.00
2019-05-03T09:32:35.015Z,100053.67
2019-05-03T09:35:08.565Z,100039.53
2019-05-03T09:37:41.181Z,100046.83
2019-05-03T09:40:15.264Z,100044.70
2019-05-03T09:42:48.095Z,100052.02
2019-05-03T09:45:21.115Z,100043.70
2019-05-03T09:47:55.126Z,100046.30
2019-05-03T09:50:28.450Z,100043.98
2019-05-03T09:53:01.431Z,100056.36
2019-05-03T09:55:35.675Z,100047.92
2019-05-03T09:58:08.185Z,100032.41
2019-05-03T10:00:41.135Z,100043.14
2019-05-03T10:03:14.210Z,100038.53
2019-05-03T10:05:47.071Z,100035.17
2019-05-03T10:08:19.896Z,100039.70
2019-05-03T10:11:10.065Z,100037.55
2019-05-03T10:13:43.201Z,100038.23
2019-05-03T10:16:18.006Z,100045.11
2019-05-03T10:18:50.687Z,100044.20
2019-05-03T10:21:25.736Z,100026.84
2019-05-03T10:23:58.749Z,100033.49
2019-05-03T10:26:31.727Z,100019.13
2019-05-03T10:29:05.437Z,100029.56
2019-05-03T10:31:44.894Z,100031.88
2019-05-03T10:34:17.984Z,100032.67
2019-05-03T10:36:50.921Z,100017.98
2019-05-03T10:39:26.129Z,100036.06
2019-05-03T10:41:58.068Z,100033.72
2019-05-03T10:44:31.045Z,100029.96
2019-05-03T10:47:05.481Z,100043.84
2019-05-03T10:49:38.715Z,100027.03
2019-05-03T10:52:11.978Z,100031.50
2019-05-03T10:54:45.944Z,100021.83
2019-05-03T10:57:20.195Z,100025.53
2019-05-03T10:59:53.190Z,100030.05
2019-05-03T11:02:45.309Z,100030.21
2019-05-03T11:05:18.265Z,100028.47
2019-05-03T11:07:50.946Z,100029.80
2019-05-03T11:10:25.279Z,100028.66
2019-05-03T11:12:59.405Z,100025.94
2019-05-03T11:15:32.402Z,100024.05
2019-05-03T11:18:05.685Z,100035.17
2019-05-03T11:20:39.087Z,100025.10
2019-05-03T11:23:12.071Z,100017.30
2019-05-03T11:25:45.275Z,100026.33
2019-05-03T11:28:19.927Z,100032.59
2019-05-03T11:30:59.076Z,100020.70
2019-05-03T11:33:29.756Z,100027.28
2019-05-03T11:36:14.903Z,100027.84
2019-05-03T11:38:47.312Z,100023.34
2019-05-03T11:41:30.222Z,100024.19
2019-05-03T11:43:54.255Z,100031.09
2019-05-03T11:46:26.900Z,100032.70
2019-05-03T11:48:59.652Z,100033.50
2019-05-03T11:51:32.661Z,100031.99
2019-05-03T11:54:05.849Z,100024.27
2019-05-03T11:56:38.925Z,100027.34
2019-05-03T11:59:11.475Z,100017.44
2019-05-03T12:01:55.398Z,100030.83
2019-05-03T12:04:28.245Z,100021.55
2019-05-03T12:07:01.795Z,100021.39
2019-05-03T12:09:34.562Z,100022.69
2019-05-03T12:12:08.670Z,100032.61
2019-05-03T12:14:41.110Z,100020.22
2019-05-03T12:17:20.933Z,100036.10
2019-05-03T12:19:50.663Z,100035.91
2019-05-03T12:22:25.821Z,100029.31
2019-05-03T12:24:58.701Z,100023.29
2019-05-03T12:27:31.859Z,100022.95
2019-05-03T12:30:06.325Z,100023.15
2019-05-03T12:32:39.231Z,100029.63
2019-05-03T12:35:12.210Z,100025.86
2019-05-03T12:37:45.051Z,100020.17
2019-05-03T12:40:17.860Z,100024.34
2019-05-03T12:42:50.725Z,100030.25
2019-05-03T12:45:24.758Z,100026.42
2019-05-03T12:47:57.895Z,100025.88
2019-05-03T12:50:30.510Z,100024.84
2019-05-03T12:53:04.881Z,100015.91
2019-05-03T12:55:38.061Z,100014.84
2019-05-03T12:58:10.991Z,100019.87
2019-05-03T13:00:57.345Z,100019.80
2019-05-03T13:03:31.715Z,100024.97
2019-05-03T13:06:07.174Z,100023.79
2019-05-03T13:08:45.378Z,100021.48
2019-05-03T13:11:17.750Z,100016.06
2019-05-03T13:13:51.760Z,100016.44
2019-05-03T13:16:24.782Z,100020.45
2019-05-03T13:18:57.595Z,100014.06
2019-05-03T13:21:30.075Z,100019.11
2019-05-03T13:24:05.074Z,100009.28
2019-05-03T13:26:38.735Z,100017.64
2019-05-03T13:29:11.390Z,100018.50
2019-05-03T13:31:55.839Z,100002.64
2019-05-03T13:34:18.450Z,99999.14
2019-05-03T13:36:51.160Z,100001.53
2019-05-03T13:39:26.282Z,100000.17
2019-05-03T13:41:58.351Z,99998.77
2019-05-03T13:44:31.280Z,99990.51
2019-05-03T13:47:05.310Z,99996.91
2019-05-03T13:49:38.066Z,100000.08
2019-05-03T13:52:10.775Z,99997.63
2019-05-03T13:54:45.908Z,99990.38
2019-05-03T13:57:18.355Z,99996.30
2019-05-03T13:59:51.201Z,99983.46
2019-05-03T14:02:24.235Z,99989.83
2019-05-03T14:04:57.115Z,99983.06
2019-05-03T14:07:29.790Z,99990.05
2019-05-03T14:10:02.615Z,99982.25
2019-05-03T14:12:35.306Z,99982.45
2019-05-03T14:15:09.456Z,99980.30
2019-05-03T14:17:43.115Z,99983.14
2019-05-03T14:20:17.985Z,99988.16
2019-05-03T14:22:51.925Z,99986.69
2019-05-03T14:25:24.801Z,99984.76
2019-05-03T14:27:59.651Z,99979.42
2019-05-03T14:30:32.208Z,99988.19
2019-05-03T14:33:05.152Z,99985.55
2019-05-03T14:35:37.895Z,99994.14
2019-05-03T14:38:10.730Z,99994.91
2019-05-03T14:40:44.945Z,99995.33
2019-05-03T14:43:17.960Z,100000.37
2019-05-03T14:45:50.775Z,99987.14
2019-05-03T14:48:24.873Z,99984.30
2019-05-03T14:50:57.967Z,99982.33
2019-05-03T14:53:30.485Z,99980.75
2019-05-03T14:56:08.010Z,99982.41
2019-05-03T14:59:00.520Z,99981.87
2019-05-03T15:01:36.080Z,99981.44
2019-05-03T15:04:09.276Z,99991.77
2019-05-03T15:06:42.056Z,99978.70
2019-05-03T15:09:18.886Z,99971.63
2019-05-03T15:11:49.595Z,99986.49
2019-05-03T15:14:22.405Z,99983.09
2019-05-03T15:16:55.752Z,99985.26
2019-05-03T15:19:28.512Z,99982.80
2019-05-03T15:22:01.470Z,99981.80
2019-05-03T15:24:34.631Z,99985.59
2019-05-03T15:27:07.605Z,99979.61
2019-05-03T15:29:40.460Z,99989.50
2019-05-03T15:32:15.343Z,99997.60
2019-05-03T15:34:47.855Z,99991.50
2019-05-03T15:37:21.626Z,99997.20
2019-05-03T15:39:54.713Z,99994.59
2019-05-03T15:42:28.285Z,99995.09
2019-05-03T15:45:03.224Z,99992.72
2019-05-03T15:47:41.540Z,99994.84
2019-05-03T15:50:15.478Z,100004.55
2019-05-03T15:52:48.362Z,100000.81
2019-05-03T15:55:21.335Z,100003.36
2019-05-03T15:57:55.281Z,100003.25
2019-05-03T16:00:28.046Z,100003.77
2019-05-03T16:03:08.051Z,100001.80
2019-05-03T16:05:35.615Z,100000.31
2019-05-03T16:08:08.396Z,100008.61
2019-05-03T16:10:41.075Z,100004.29
2019-05-03T16:13:14.346Z,100005.12
2019-05-03T16:15:47.315Z,100004.42
2019-05-03T16:18:19.830Z,100011.93
2019-05-03T16:20:54.379Z,100012.28
2019-05-03T16:23:27.350Z,100013.84
2019-05-03T16:26:00.000Z,100009.78
2019-05-03T16:28:37.161Z,100010.21
2019-05-03T16:31:17.879Z,100011.02
2019-05-03T16:33:51.561Z,100009.03
2019-05-03T16:36:24.085Z,100012.77
2019-05-03T16:38:57.255Z,100017.42
2019-05-03T16:41:30.475Z,100019.46
2019-05-03T16:44:03.040Z,100018.28
2019-05-03T16:46:35.880Z,100024.40
2019-05-03T16:49:08.755Z,100017.08
2019-05-03T16:51:41.454Z,100019.84
2019-05-03T16:54:14.619Z,100022.11
2019-05-03T16:56:49.041Z,100017.30
2019-05-03T16:59:21.850Z,100018.02
2019-05-03T17:01:55.196Z,100024.13
2019-05-03T17:04:38.570Z,100024.83
2019-05-03T17:07:15.900Z,100024.81
2019-05-03T17:10:02.762Z,100030.39
2019-05-03T17:12:37.125Z,100026.69
2019-05-03T17:15:10.535Z,100030.39
2019-05-03T17:17:45.025Z,100033.76
2019-05-03T17:20:18.320Z,100023.78
2019-05-03T17:22:51.155Z,100029.53
2019-05-03T17:25:24.533Z,100033.42
2019-05-03T17:27:57.627Z,100031.27
2019-05-03T17:30:34.013Z,100032.80
2019-05-03T17:33:05.258Z,100032.92
2019-05-03T17:35:38.225Z,100037.98
2019-05-03T17:38:11.340Z,100030.17
2019-05-03T17:40:57.829Z,100034.83
2019-05-03T17:43:30.440Z,100035.70
2019-05-03T17:46:07.730Z,100034.59
2019-05-03T17:48:40.886Z,100036.61
2019-05-03T17:51:15.200Z,100035.84
2019-05-03T17:53:58.768Z,100041.92
2019-05-03T17:56:34.969Z,100037.47
2019-05-03T17:59:09.345Z,100036.94
2019-05-03T18:01:59.955Z,100041.47
2019-05-03T18:04:44.860Z,100045.29
2019-05-03T18:07:24.303Z,100043.55
2019-05-03T18:09:58.655Z,100045.45
2019-05-03T18:12:31.450Z,100050.89
2019-05-03T18:15:05.700Z,100048.22
2019-05-03T18:17:40.055Z,100055.48
2019-05-03T18:20:15.057Z,100058.26
2019-05-03T18:22:48.065Z,100055.69
2019-05-03T18:25:21.261Z,100058.73
2019-05-03T18:27:55.182Z,100054.52
2019-05-03T18:30:28.315Z,100061.04
2019-05-03T18:33:01.045Z,100059.54
2019-05-03T18:35:33.885Z,100061.72
2019-05-03T18:38:06.827Z,100049.41
2019-05-03T18:40:39.760Z,100061.16
2019-05-03T18:43:16.985Z,100065.97
2019-05-03T18:45:54.583Z,100066.58
2019-05-03T18:48:27.390Z,100069.14
2019-05-03T18:51:00.060Z,100078.73
2019-05-03T18:53:34.368Z,100082.20
2019-05-03T18:56:07.501Z,100079.72
2019-05-03T18:58:40.095Z,100087.55
2019-05-03T19:01:14.815Z,100081.84
2019-05-03T19:03:49.370Z,100090.59
2019-05-03T19:06:22.346Z,100086.48
2019-05-03T19:09:01.381Z,100090.72
2019-05-03T19:11:54.764Z,100085.47
2019-05-03T19:14:27.614Z,100085.67
2019-05-03T19:17:15.323Z,100094.10
2019-05-03T19:19:49.240Z,100089.42
2019-05-03T19:22:22.500Z,100082.29
2019-05-03T19:24:55.371Z,100084.55
2019-05-03T19:27:28.360Z,100086.53
2019-05-03T19:30:01.035Z,100087.66
2019-05-03T19:32:35.809Z,100083.82
2019-05-03T19:35:10.365Z,100089.62
2019-05-03T19:37:46.321Z,100090.94
2019-05-03T19:40:17.865Z,100087.92
2019-05-03T19:42:50.895Z,100085.80
2019-05-03T19:45:24.817Z,100077.93
2019-05-03T19:47:58.011Z,100079.34
2019-05-03T19:50:31.049Z,100079.91
2019-05-03T19:53:20.654Z,100079.22
2019-05-03T19:55:55.216Z,100078.48
2019-05-03T19:58:27.855Z,100078.48
2019-05-03T20:01:05.649Z,100078.30
2019-05-03T20:03:56.640Z,100076.08
2019-05-03T20:06:50.300Z,100081.03
2019-05-03T20:09:24.665Z,100081.95
2019-05-03T20:11:57.950Z,100079.69
2019-05-03T20:14:30.711Z,100079.69
2019-05-03T20:17:04.714Z,100078.48
2019-05-03T20:19:38.180Z,100081.00
2019-05-03T20:22:11.186Z,100071.77
2019-05-03T20:24:44.762Z,100079.25
2019-05-03T20:27:17.682Z,100079.25
2019-05-03T20:29:50.395Z,100079.52
2019-05-03T20:32:25.054Z,100067.52
2019-05-03T20:35:11.076Z,100067.52
2019-05-03T20:37:35.440Z,100063.48
2019-05-03T20:40:09.138Z,100063.48
2019-05-03T20:42:58.620Z,100069.83
2019-05-03T20:45:31.260Z,100066.84
2019-05-03T20:48:05.665Z,100071.66
2019-05-03T20:50:38.815Z,100070.78
2019-05-03T20:53:11.830Z,100068.39
2019-05-03T20:55:45.139Z,100070.05
2019-05-03T20:58:18.096Z,100066.55
2019-05-03T21:00:51.101Z,100052.56
2019-05-03T21:03:24.847Z,100065.83
2019-05-03T21:05:57.655Z,100071.39
2019-05-03T21:08:30.255Z,100073.33
2019-05-03T21:11:02.960Z,100070.59
2019-05-03T21:13:42.160Z,100070.67
2019-05-03T21:16:14.663Z,100074.53
2019-05-03T21:18:54.345Z,100069.94
2019-05-03T21:21:36.045Z,100057.92
2019-05-03T21:24:14.250Z,100057.92
2019-05-03T21:26:47.390Z,100062.59
2019-05-03T21:29:20.260Z,100062.02
2019-05-03T21:31:55.130Z,100058.33
2019-05-03T21:34:27.705Z,100066.80
2019-05-03T21:37:00.771Z,100064.50
2019-05-03T21:39:34.845Z,100058.33
2019-05-03T21:42:07.850Z,100061.62
2019-05-03T21:44:40.621Z,100058.33
2019-05-03T21:47:21.065Z,100061.57
2019-05-03T21:49:54.795Z,100061.34
2019-05-03T21:52:27.619Z,100064.95
2019-05-03T21:55:00.255Z,100063.73
2019-05-03T21:57:34.490Z,100058.14
2019-05-03T22:00:12.396Z,100058.91
2019-05-03T22:02:46.580Z,100054.91
2019-05-03T22:05:19.470Z,100061.74
2019-05-03T22:07:54.953Z,100059.12
2019-05-03T22:10:27.790Z,100061.94
2019-05-03T22:13:00.510Z,100062.70
2019-05-03T22:15:37.700Z,100067.02
2019-05-03T22:18:12.110Z,100058.64
2019-05-03T22:20:52.565Z,100065.45
2019-05-03T22:23:27.870Z,100068.01
2019-05-03T22:26:02.495Z,100067.92
2019-05-03T22:28:35.685Z,100061.30
2019-05-03T22:31:08.417Z,100062.97
2019-05-03T22:33:41.021Z,100070.27
2019-05-03T22:36:14.509Z,100063.20
2019-05-03T22:38:47.345Z,100060.59
2019-05-03T22:41:20.110Z,100066.21
2019-05-03T22:43:54.606Z,100066.58
2019-05-03T22:46:27.220Z,100062.30
2019-05-03T22:48:59.979Z,100062.66
2019-05-03T22:51:34.550Z,100056.98
2019-05-03T22:54:07.470Z,100053.06
2019-05-03T22:56:40.095Z,100051.84
2019-05-03T22:59:14.751Z,100048.01
2019-05-03T23:01:47.670Z,100054.91
2019-05-03T23:04:20.421Z,100036.31
2019-05-03T23:06:55.210Z,100040.91
2019-05-03T23:09:27.930Z,100036.62
2019-05-03T23:12:00.639Z,100035.68
2019-05-03T23:14:34.711Z,100035.08
2019-05-03T23:17:07.470Z,100035.62
2019-05-03T23:19:42.000Z,100035.53
2019-05-03T23:22:16.118Z,100026.75
2019-05-03T23:24:48.870Z,100029.77
2019-05-03T23:27:21.580Z,100022.38
2019-05-03T23:29:54.535Z,100022.78
2019-05-03T23:32:27.390Z,100021.47
2019-05-03T23:35:00.481Z,100022.78
2019-05-03T23:37:34.653Z,100024.09
2019-05-03T23:40:09.570Z,100036.08
2019-05-03T23:42:43.154Z,100036.53
2019-05-03T23:45:16.230Z,100031.77
2019-05-03T23:47:49.490Z,100023.20
2019-05-03T23:50:24.718Z,100019.81
2019-05-03T23:52:57.534Z,100023.79
2019-05-03T23:55:34.679Z,100021.75
2019-05-03T23:58:07.376Z,100014.61
